Capulin Mountain National Mo, New Mexico
Current Conditions -  °F | °C
As of 4:53 PM on Sunday 21 Dec 2014 (Local Time) from KRTN Reporting Station
Clear Clear  
Wind Chill: 35°   Ceiling: Unl
Heat Index: 40°   Visibility: 10mi
Dew Point: 19°   Wind: 7mph
Humidity: 43%   Direction: 20°NNE
Pressure: 29.65"   Gusts: NA
Location:  36.7361°N, 103.978°W
Report Text: KRTN 212353Z AUTO 02006KT 10SM CLR 04/M07 A2965 RMK AO2 SLP040 T00441072 10061 20039 58005
Loading
Personal Weather Stations






























Interactive Weather Map New forecast layout! Learn more

10-Day Weather Forecast

Advertisements
Track Severe Weather on mobile